createdAt,value
2022-12-08T00:01:25.658Z,27.45
2022-12-08T00:07:01.601Z,28.55
2022-12-08T00:12:04.986Z,25.30
2022-12-08T00:17:09.950Z,23.10
2022-12-08T00:22:15.262Z,23.65
2022-12-08T00:27:18.216Z,25.73
2022-12-08T00:32:20.018Z,30.15
2022-12-08T00:37:21.951Z,27.52
2022-12-08T00:42:23.765Z,34.15
2022-12-08T00:47:25.502Z,29.83
2022-12-08T00:52:27.250Z,29.85
2022-12-08T00:57:29.043Z,35.08
2022-12-08T01:02:32.467Z,34.50
2022-12-08T01:07:34.275Z,37.45
2022-12-08T01:12:36.007Z,36.60
2022-12-08T01:17:38.274Z,36.70
2022-12-08T01:22:40.047Z,39.42
2022-12-08T01:27:41.782Z,39.53
2022-12-08T01:32:43.657Z,33.22
2022-12-08T01:37:45.570Z,42.25
2022-12-08T01:42:47.327Z,43.35
2022-12-08T01:47:51.481Z,39.20
2022-12-08T01:52:58.104Z,42.50
2022-12-08T01:58:05.491Z,34.90
2022-12-08T02:03:14.504Z,37.25
2022-12-08T02:08:16.926Z,34.80
2022-12-08T02:13:20.806Z,32.65
2022-12-08T02:18:35.110Z,40.83
2022-12-08T02:23:42.625Z,40.80
2022-12-08T02:29:18.967Z,33.72
2022-12-08T02:34:33.040Z,30.67
2022-12-08T02:39:52.861Z,44.33
2022-12-08T02:45:00.539Z,29.77
2022-12-08T02:50:02.813Z,30.77
2022-12-08T02:55:29.411Z,24.70
2022-12-08T03:00:40.934Z,29.33
2022-12-08T03:06:10.315Z,34.55
2022-12-08T03:11:20.435Z,36.72
2022-12-08T03:16:27.684Z,30.02
2022-12-08T03:21:31.514Z,28.23
2022-12-08T03:26:44.673Z,23.25
2022-12-08T03:31:53.926Z,30.88
2022-12-08T03:36:55.951Z,22.92
2022-12-08T03:41:57.694Z,20.38
2022-12-08T03:46:59.527Z,19.70
2022-12-08T03:52:01.291Z,17.27
2022-12-08T03:57:03.116Z,18.02
2022-12-08T04:02:04.898Z,18.45
2022-12-08T04:07:06.672Z,21.50
2022-12-08T04:12:11.527Z,19.38
2022-12-08T04:17:13.343Z,12.88
2022-12-08T04:22:15.115Z,15.20
2022-12-08T04:27:16.858Z,15.32
2022-12-08T04:32:18.660Z,15.43
2022-12-08T04:37:20.480Z,11.32
2022-12-08T04:42:22.221Z,16.30
2022-12-08T04:47:24.157Z,12.30
2022-12-08T04:52:26.096Z,13.55
2022-12-08T04:57:27.977Z,12.75
2022-12-08T05:02:29.776Z,13.73
2022-12-08T05:07:31.569Z,14.52
2022-12-08T05:12:33.697Z,14.43
2022-12-08T05:17:35.518Z,13.32
2022-12-08T05:22:37.427Z,16.48
2022-12-08T05:27:39.158Z,17.63
2022-12-08T05:32:40.991Z,21.65
2022-12-08T05:37:42.730Z,16.88
2022-12-08T05:42:44.554Z,20.30
2022-12-08T05:47:46.286Z,22.35
2022-12-08T05:52:48.046Z,18.55
2022-12-08T05:57:49.838Z,23.73
2022-12-08T06:02:51.768Z,22.92
2022-12-08T06:07:53.697Z,25.20
2022-12-08T06:12:55.495Z,31.52
2022-12-08T06:17:57.250Z,30.35
2022-12-08T06:22:59.046Z,32.55
2022-12-08T06:28:00.802Z,31.40
2022-12-08T06:33:02.580Z,29.48
2022-12-08T06:38:04.318Z,27.58
2022-12-08T06:43:06.129Z,24.63
2022-12-08T06:48:07.887Z,29.35
2022-12-08T06:53:13.025Z,23.60
2022-12-08T06:58:15.233Z,24.63
2022-12-08T07:03:17.042Z,18.75
2022-12-08T07:08:19.104Z,16.95
2022-12-08T07:13:20.887Z,18.92
2022-12-08T07:18:23.159Z,13.73
2022-12-08T07:23:24.894Z,16.67
2022-12-08T07:28:26.717Z,14.50
2022-12-08T07:33:28.457Z,15.60
2022-12-08T07:38:30.618Z,13.98
2022-12-08T07:43:32.385Z,17.15
2022-12-08T07:48:34.247Z,14.05
2022-12-08T07:53:36.214Z,13.23
2022-12-08T07:58:38.081Z,13.13
2022-12-08T08:03:40.011Z,11.73
2022-12-08T08:08:41.709Z,12.57
2022-12-08T08:13:43.426Z,11.05
2022-12-08T08:18:48.949Z,10.07
2022-12-08T08:23:50.670Z,8.85
2022-12-08T08:28:52.418Z,9.25
2022-12-08T08:33:54.308Z,11.05
2022-12-08T08:38:56.061Z,11.57
2022-12-08T08:43:57.960Z,9.18
2022-12-08T08:48:59.726Z,11.82
2022-12-08T08:54:01.808Z,15.48
2022-12-08T08:59:03.955Z,9.40
2022-12-08T09:04:05.884Z,10.45
2022-12-08T09:09:07.618Z,8.75
2022-12-08T09:14:17.346Z,16.17
2022-12-08T09:19:19.187Z,8.25
2022-12-08T09:24:20.948Z,5.80
2022-12-08T09:29:22.714Z,3.80
2022-12-08T09:34:24.618Z,4.82
2022-12-08T09:39:26.467Z,4.18
2022-12-08T09:44:57.253Z,3.72
2022-12-08T09:50:07.485Z,5.63
2022-12-08T09:55:19.646Z,6.07
2022-12-08T10:00:21.749Z,6.15
2022-12-08T10:05:25.771Z,5.95
2022-12-08T10:10:46.829Z,6.68
2022-12-08T10:16:17.604Z,7.32
2022-12-08T10:21:28.727Z,6.82
2022-12-08T10:26:32.715Z,9.85
2022-12-08T10:31:34.506Z,10.15
2022-12-08T10:36:58.643Z,13.68
2022-12-08T10:42:02.472Z,8.25
2022-12-08T10:47:13.268Z,5.45
2022-12-08T10:52:24.962Z,7.68
2022-12-08T10:57:26.763Z,16.13
2022-12-08T11:02:28.781Z,7.72
2022-12-08T11:07:30.670Z,7.10
2022-12-08T11:12:32.602Z,7.50
2022-12-08T11:17:39.594Z,9.15
2022-12-08T11:22:43.191Z,11.50
2022-12-08T11:27:48.166Z,10.30
2022-12-08T11:32:54.434Z,11.13
2022-12-08T11:38:19.850Z,11.40
2022-12-08T11:43:25.643Z,11.45
2022-12-08T11:48:32.396Z,9.38
2022-12-08T11:53:40.646Z,9.15
2022-12-08T11:58:47.192Z,8.65
2022-12-08T12:04:10.050Z,12.60
2022-12-08T12:09:33.807Z,10.23
2022-12-08T12:15:07.006Z,8.35
2022-12-08T12:20:23.325Z,7.85
2022-12-08T12:25:27.101Z,6.95
2022-12-08T12:30:48.740Z,8.10
2022-12-08T12:35:50.908Z,8.32
2022-12-08T12:41:00.428Z,11.43
2022-12-08T12:46:24.175Z,18.15
2022-12-08T12:51:45.325Z,19.73
2022-12-08T12:56:49.689Z,21.13
2022-12-08T13:01:55.654Z,14.88
2022-12-08T13:06:57.682Z,13.55
2022-12-08T13:12:08.631Z,15.30
2022-12-08T13:17:14.163Z,18.40
2022-12-08T13:22:53.146Z,23.13
2022-12-08T13:27:55.301Z,28.33
2022-12-08T13:33:18.067Z,22.90
2022-12-08T13:38:26.364Z,23.98
2022-12-08T13:44:50.804Z,20.73
2022-12-08T14:00:21.367Z,29.85
2022-12-08T14:05:47.565Z,30.42
2022-12-08T14:10:53.371Z,24.17
2022-12-08T14:15:55.344Z,23.70
2022-12-08T14:21:22.404Z,31.98
2022-12-08T14:26:24.289Z,30.23
2022-12-08T14:31:27.976Z,34.13
2022-12-08T14:36:30.324Z,32.95
2022-12-08T14:41:32.798Z,28.00
2022-12-08T14:46:34.571Z,28.05
2022-12-08T14:51:36.892Z,27.63
2022-12-08T14:56:42.298Z,27.75
2022-12-08T15:01:45.391Z,22.38
2022-12-08T15:06:50.778Z,31.60
2022-12-08T15:12:15.854Z,28.05
2022-12-08T15:17:35.368Z,37.75
2022-12-08T15:22:37.110Z,26.30
2022-12-08T15:27:49.801Z,24.75
2022-12-08T15:32:54.237Z,21.70
2022-12-08T15:37:56.277Z,24.10
2022-12-08T15:42:58.167Z,21.65
2022-12-08T15:48:00.695Z,19.20
2022-12-08T15:53:02.775Z,18.70
2022-12-08T15:58:51.841Z,24.08
2022-12-08T16:04:09.393Z,23.23
2022-12-08T16:09:00.475Z,20.67
2022-12-08T16:14:47.375Z,16.58
2022-12-08T16:19:33.554Z,20.90
2022-12-08T16:24:35.314Z,22.65
2022-12-08T16:29:37.114Z,22.33
2022-12-08T16:34:39.050Z,18.00
2022-12-08T16:39:45.540Z,19.50
2022-12-08T16:44:47.662Z,21.63
2022-12-08T16:49:49.448Z,21.95
2022-12-08T16:54:51.282Z,17.88
2022-12-08T16:59:53.005Z,20.95
2022-12-08T17:04:54.855Z,24.60
2022-12-08T17:09:56.963Z,27.15
2022-12-08T17:14:58.724Z,22.10
2022-12-08T17:20:00.452Z,21.40
2022-12-08T17:25:02.869Z,20.17
2022-12-08T17:30:06.428Z,18.30
2022-12-08T17:35:09.052Z,21.00
2022-12-08T17:40:11.634Z,17.05
2022-12-08T17:45:13.441Z,22.27
2022-12-08T17:50:15.208Z,15.75
2022-12-08T17:55:17.495Z,20.92
2022-12-08T18:00:19.458Z,17.42
2022-12-08T18:05:21.230Z,21.15
2022-12-08T18:10:22.990Z,20.85
2022-12-08T18:15:26.065Z,17.90
2022-12-08T18:20:27.881Z,16.55
2022-12-08T18:25:29.594Z,20.25
2022-12-08T18:30:31.501Z,19.30
2022-12-08T18:35:33.674Z,18.38
2022-12-08T18:40:35.430Z,19.00
2022-12-08T18:45:38.871Z,17.45
2022-12-08T18:50:44.719Z,18.65
2022-12-08T18:55:47.232Z,18.75
2022-12-08T19:00:48.963Z,18.38
2022-12-08T19:05:50.734Z,17.33
2022-12-08T19:10:52.462Z,16.17
2022-12-08T19:15:54.647Z,16.42
2022-12-08T19:20:56.945Z,16.80
2022-12-08T19:25:58.851Z,18.52
2022-12-08T19:31:04.648Z,18.83
2022-12-08T19:36:13.957Z,21.40
2022-12-08T19:41:34.494Z,22.50
2022-12-08T19:46:40.358Z,20.70
2022-12-08T19:51:42.399Z,23.27
2022-12-08T19:56:44.166Z,26.60
2022-12-08T20:01:48.286Z,23.35
2022-12-08T20:06:51.356Z,30.55
2022-12-08T20:11:54.748Z,22.27
2022-12-08T20:16:56.622Z,24.67
2022-12-08T20:21:58.356Z,37.72
2022-12-08T20:27:00.131Z,26.45
2022-12-08T20:32:01.991Z,26.15
2022-12-08T20:37:03.893Z,26.02
2022-12-08T20:42:05.747Z,25.58
2022-12-08T20:47:07.704Z,25.98
2022-12-08T20:52:09.743Z,29.90
2022-12-08T20:57:11.650Z,33.45
2022-12-08T21:02:13.692Z,30.40
2022-12-08T21:07:15.800Z,32.58
2022-12-08T21:12:17.593Z,33.97
2022-12-08T21:17:19.653Z,36.97
2022-12-08T21:22:21.732Z,35.65
2022-12-08T21:27:23.676Z,35.30
2022-12-08T21:32:30.057Z,35.75
2022-12-08T21:37:33.172Z,38.38
2022-12-08T21:42:43.959Z,35.50
2022-12-08T21:47:47.696Z,40.85
2022-12-08T21:52:50.368Z,36.17
2022-12-08T21:57:52.201Z,37.40
2022-12-08T22:02:54.277Z,36.67
2022-12-08T22:07:56.402Z,37.95
2022-12-08T22:12:58.269Z,38.58
2022-12-08T22:18:00.289Z,48.05
2022-12-08T22:23:02.694Z,36.40
2022-12-08T22:28:05.077Z,43.08
2022-12-08T22:33:06.878Z,39.45
2022-12-08T22:38:08.938Z,38.78
2022-12-08T22:43:10.676Z,40.22
2022-12-08T22:48:12.550Z,38.85
2022-12-08T22:53:14.468Z,44.90
2022-12-08T22:58:16.370Z,39.28
2022-12-08T23:03:18.332Z,44.95
2022-12-08T23:08:20.572Z,40.45
2022-12-08T23:13:22.883Z,37.60
2022-12-08T23:18:24.847Z,39.80
2022-12-08T23:23:26.797Z,38.80
2022-12-08T23:28:28.844Z,40.80
2022-12-08T23:33:31.675Z,43.50
2022-12-08T23:38:33.999Z,43.05
2022-12-08T23:43:36.134Z,48.13
2022-12-08T23:48:38.079Z,50.78
2022-12-08T23:53:40.604Z,49.47
2022-12-08T23:58:43.619Z,53.00
